Airfield :
LOGIN :

Register | Disclaimer

   EN    FR    IT 

 










Legend :    VFR   Marginal VFR   IFR   Intensive IFR   Very Intensive IFR
Visi :
Ceiling :
>= 8 km
>= 3000ft
5 to 8 km
1000 to 3000 ft
1500m to 5 km
500 to 1000 ft
800 to 1500m
200 to 500 ft
< 800m
< 200 ft
Symbols :   Thunderstorms  Fog  Heavy snow  Heavy precipitations  Wind > 20 kt
SIGMETs :     Misc.  Thunderstorms  Icing  Turbulence  Mountain Waves  Volcanic Ashes






- Airport Elevation : 144 ft
- IATA code : PGF


LFMP - Perpignan

CURRENT METAR :
  • 201500Z AUTO 27009KT 9999 -RA FEW033/// SCT058/// BKN086/// ///TCU 17/15 Q1009 TEMPO RA FEW035CB BKN050 BKN060

EXPIRED METARs :
  • 201430Z AUTO 27011KT 9999 -RA FEW062/// OVC084/// ///TCU 16/14 Q1009 TEMPO FEW035CB BKN040 BKN050
  • 201400Z AUTO 27014KT 9999 RA SCT052/// SCT064/// OVC080/// ///CB 17/13 Q1009 BECMG NSW
  • 201330Z AUTO 28005KT 240V330 9999 BKN048/// BKN058/// BKN068/// ///CB 20/11 Q1009 NOSIG
  • 201300Z AUTO 31007KT 280V020 9999 BKN046/// BKN056/// BKN068/// //////CB 21/11 Q1009 BECMG FEW025 BKN035 BKN050
  • 201230Z AUTO 28005KT 220V360 9999 FEW048/// BKN074/// ///CB 22/11 Q1009 BECMG FEW025 BKN035 BKN050
  • 201200Z AUTO 34004KT 310V040 9999 SCT040 BKN056 OVC066 21/12 Q1010 NOSIG
  • 201130Z AUTO 30003KT 230V350 9999 BKN040 BKN048 OVC062 21/11 Q1010 NOSIG
  • 201100Z AUTO VRB03KT 9999 FEW041 SCT047 BKN058 21/11 Q1010 NOSIG

TAF TAF LFMP
Valid from the 20 at 15:00 until the 21 at 15:00 UTC


201400Z 2015/2115 29010KT 9999 FEW035 SCT050 BKN080
TEMPO 2015/2018 RA FEW035CB BKN050 BKN060
TEMPO 2113/2115 20010KT RA FEW035CB BKN060
ATIS : +33 4 68 63 75 12



MET'MAP, your aeronautical weather chart ! - Copyright ORBIFLY December 2007 - Disclaimer

ORBIFLY MET'MAP TEAM :

Programming & Development : Alexandra Zaïnal
Original concept : Baudouin d'Aumeries
Technical & hardware support : Manuel Goepfert
Assistance : Marc-Olivier Méhu




SOURCES & CREDITS :

   NOAA